createdAt,value
2018-11-26T00:00:35.549Z,7.95
2018-11-26T00:01:45.233Z,9.60
2018-11-26T00:02:54.908Z,9.20
2018-11-26T00:04:04.712Z,8.70
2018-11-26T00:05:14.469Z,9.95
2018-11-26T00:06:24.149Z,8.30
2018-11-26T00:07:33.763Z,9.75
2018-11-26T00:08:43.272Z,8.33
2018-11-26T00:09:53.483Z,9.45
2018-11-26T00:11:43.357Z,9.70
2018-11-26T00:12:53.072Z,8.45
2018-11-26T00:14:02.694Z,9.58
2018-11-26T00:15:12.694Z,10.13
2018-11-26T00:16:22.626Z,8.63
2018-11-26T00:17:32.622Z,8.75
2018-11-26T00:18:42.118Z,9.03
2018-11-26T00:19:51.978Z,8.55
2018-11-26T00:21:01.890Z,9.88
2018-11-26T00:22:11.732Z,8.43
2018-11-26T00:23:21.550Z,10.30
2018-11-26T00:24:31.230Z,9.85
2018-11-26T00:25:41.108Z,7.28
2018-11-26T00:26:50.889Z,9.38
2018-11-26T00:28:00.708Z,8.78
2018-11-26T00:29:10.542Z,10.10
2018-11-26T00:30:20.303Z,9.03
2018-11-26T00:31:30.222Z,8.08
2018-11-26T00:32:39.935Z,8.18
2018-11-26T00:33:49.606Z,9.55
2018-11-26T00:34:59.647Z,9.03
2018-11-26T00:36:09.307Z,8.60
2018-11-26T00:37:19.052Z,9.48
2018-11-26T00:38:28.501Z,9.83
2018-11-26T00:39:38.203Z,8.68
2018-11-26T00:40:48.090Z,9.13
2018-11-26T00:41:57.787Z,9.63
2018-11-26T00:43:07.419Z,8.98
2018-11-26T00:44:17.053Z,8.80
2018-11-26T00:45:26.880Z,9.20
2018-11-26T00:46:36.442Z,10.23
2018-11-26T00:47:46.259Z,9.20
2018-11-26T00:48:56.149Z,8.80
2018-11-26T00:50:07.316Z,10.40
2018-11-26T00:51:17.280Z,11.05
2018-11-26T00:52:26.919Z,10.50
2018-11-26T00:53:36.877Z,10.15
2018-11-26T00:54:46.834Z,10.18
2018-11-26T00:55:56.452Z,9.28
2018-11-26T00:57:06.407Z,9.28
2018-11-26T00:58:16.463Z,10.53
2018-11-26T00:59:26.150Z,9.85
2018-11-26T01:00:35.897Z,9.98
2018-11-26T01:01:45.319Z,10.38
2018-11-26T01:02:55.383Z,10.03
2018-11-26T01:04:05.539Z,10.32
2018-11-26T01:05:26.572Z,12.10
2018-11-26T01:06:36.376Z,10.45
2018-11-26T01:07:46.279Z,10.85
2018-11-26T01:08:55.977Z,9.55
2018-11-26T01:10:05.664Z,11.10
2018-11-26T01:11:15.570Z,10.00
2018-11-26T01:12:25.200Z,9.90
2018-11-26T01:13:35.070Z,10.80
2018-11-26T01:14:45.008Z,12.20
2018-11-26T01:15:54.590Z,10.80
2018-11-26T01:17:04.336Z,9.78
2018-11-26T01:18:14.352Z,11.75
2018-11-26T01:19:24.295Z,10.55
2018-11-26T01:20:34.255Z,9.88
2018-11-26T01:21:43.857Z,11.05
2018-11-26T01:22:53.445Z,9.75
2018-11-26T01:24:03.335Z,10.40
2018-11-26T01:25:12.866Z,10.85
2018-11-26T01:26:22.683Z,10.20
2018-11-26T01:27:32.633Z,11.22
2018-11-26T01:28:42.356Z,9.95
2018-11-26T01:29:52.140Z,10.63
2018-11-26T01:31:01.827Z,10.63
2018-11-26T01:32:11.458Z,10.08
2018-11-26T01:33:21.142Z,11.18
2018-11-26T01:34:30.935Z,9.05
2018-11-26T01:35:40.601Z,10.70
2018-11-26T01:36:50.371Z,9.95
2018-11-26T01:38:00.056Z,9.53
2018-11-26T01:39:09.714Z,9.30
2018-11-26T01:40:22.739Z,8.93
2018-11-26T01:41:32.812Z,9.25
2018-11-26T01:42:42.691Z,9.60
2018-11-26T01:43:52.592Z,9.48
2018-11-26T01:45:02.313Z,9.35
2018-11-26T01:46:11.921Z,9.45
2018-11-26T01:47:21.764Z,9.70
2018-11-26T01:48:31.222Z,9.45
2018-11-26T01:49:41.020Z,10.18
2018-11-26T01:50:50.888Z,8.43
2018-11-26T01:52:00.429Z,8.80
2018-11-26T01:53:16.737Z,8.48
2018-11-26T01:54:26.631Z,7.45
2018-11-26T01:55:36.453Z,8.08
2018-11-26T01:56:46.594Z,7.65
2018-11-26T01:57:56.058Z,7.35
2018-11-26T01:59:05.968Z,6.55
2018-11-26T02:00:19.967Z,8.43
2018-11-26T02:01:29.880Z,7.28
2018-11-26T02:02:39.637Z,7.75
2018-11-26T02:03:49.688Z,7.47
2018-11-26T02:04:59.356Z,8.73
2018-11-26T02:06:09.228Z,7.15
2018-11-26T02:07:19.215Z,6.47
2018-11-26T02:08:28.704Z,7.25
2018-11-26T02:09:38.353Z,6.65
2018-11-26T02:10:48.357Z,6.85
2018-11-26T02:11:58.105Z,7.10
2018-11-26T02:13:07.844Z,6.53
2018-11-26T02:14:17.561Z,6.30
2018-11-26T02:15:43.426Z,7.28
2018-11-26T02:16:53.266Z,6.10
2018-11-26T02:18:02.739Z,6.10
2018-11-26T02:19:15.297Z,6.47
2018-11-26T02:20:25.536Z,6.55
2018-11-26T02:21:35.418Z,7.12
2018-11-26T02:22:45.178Z,6.58
2018-11-26T02:23:54.849Z,5.87
2018-11-26T02:25:05.332Z,5.12
2018-11-26T02:26:15.191Z,6.83
2018-11-26T02:27:24.797Z,7.53
2018-11-26T02:28:34.439Z,5.55
2018-11-26T02:29:44.152Z,6.50
2018-11-26T02:30:54.006Z,6.12
2018-11-26T02:32:04.040Z,6.30
2018-11-26T02:33:14.089Z,6.25
2018-11-26T02:34:23.705Z,7.60
2018-11-26T02:35:33.425Z,5.50
2018-11-26T02:36:43.420Z,6.35
2018-11-26T02:37:53.491Z,5.83
2018-11-26T02:39:03.465Z,6.20
2018-11-26T02:40:16.804Z,7.55
2018-11-26T02:41:26.665Z,6.70
2018-11-26T02:42:36.421Z,6.03
2018-11-26T02:43:46.027Z,5.58
2018-11-26T02:44:55.729Z,5.95
2018-11-26T02:46:05.940Z,5.83
2018-11-26T02:47:15.523Z,6.37
2018-11-26T02:48:25.051Z,5.10
2018-11-26T02:49:35.055Z,6.05
2018-11-26T02:50:45.139Z,5.65
2018-11-26T02:51:55.415Z,5.83
2018-11-26T02:53:05.356Z,5.80
2018-11-26T02:54:15.185Z,5.83
2018-11-26T02:55:25.092Z,5.83
2018-11-26T02:56:34.814Z,5.62
2018-11-26T02:57:44.959Z,5.53
2018-11-26T02:58:54.879Z,5.17
2018-11-26T03:00:05.620Z,5.28
2018-11-26T03:01:15.465Z,5.70
2018-11-26T03:02:25.027Z,5.25
2018-11-26T03:03:34.789Z,5.75
2018-11-26T03:04:44.536Z,5.60
2018-11-26T03:05:54.152Z,6.20
2018-11-26T03:07:04.109Z,4.67
2018-11-26T03:08:13.762Z,5.45
2018-11-26T03:09:23.477Z,5.72
2018-11-26T03:10:33.160Z,5.12
2018-11-26T03:11:43.050Z,5.03
2018-11-26T03:12:52.976Z,5.42
2018-11-26T03:14:03.135Z,5.10
2018-11-26T03:15:12.975Z,5.47
2018-11-26T03:16:22.658Z,6.17
2018-11-26T03:17:32.614Z,4.85
2018-11-26T03:18:42.305Z,5.55
2018-11-26T03:19:52.206Z,5.75
2018-11-26T03:21:02.314Z,6.17
2018-11-26T03:22:12.089Z,5.30
2018-11-26T03:23:22.007Z,6.42
2018-11-26T03:24:31.964Z,5.65
2018-11-26T03:25:42.008Z,5.15
2018-11-26T03:26:51.795Z,5.58
2018-11-26T03:28:01.521Z,5.62
2018-11-26T03:29:11.185Z,4.87
2018-11-26T03:30:22.068Z,5.33
2018-11-26T03:31:31.753Z,5.72
2018-11-26T03:32:41.957Z,5.50
2018-11-26T03:33:51.799Z,5.05
2018-11-26T03:35:01.642Z,5.15
2018-11-26T03:36:11.296Z,4.70
2018-11-26T03:37:21.240Z,5.00
2018-11-26T03:38:52.727Z,5.00
2018-11-26T03:40:02.464Z,4.87
2018-11-26T03:41:12.159Z,6.22
2018-11-26T03:42:22.000Z,5.25
2018-11-26T03:43:32.129Z,6.15
2018-11-26T03:44:41.726Z,5.00
2018-11-26T03:45:51.679Z,5.70
2018-11-26T03:47:01.659Z,5.85
2018-11-26T03:48:11.287Z,4.97
2018-11-26T03:49:21.202Z,5.00
2018-11-26T03:50:30.889Z,5.20
2018-11-26T03:51:40.584Z,5.50
2018-11-26T03:52:50.652Z,4.92
2018-11-26T03:54:00.406Z,6.00
2018-11-26T03:55:11.115Z,6.10
2018-11-26T03:56:21.005Z,5.87
2018-11-26T03:57:30.973Z,6.67
2018-11-26T03:58:40.711Z,7.10
2018-11-26T03:59:50.561Z,5.45
2018-11-26T04:01:00.282Z,6.17
2018-11-26T04:02:10.228Z,5.97
2018-11-26T04:03:20.015Z,6.10
2018-11-26T04:04:30.088Z,7.03
2018-11-26T04:05:39.749Z,6.08
2018-11-26T04:06:49.436Z,5.50
2018-11-26T04:07:59.192Z,6.20
2018-11-26T04:09:09.175Z,6.55
2018-11-26T04:10:19.027Z,6.97
2018-11-26T04:11:29.008Z,7.20
2018-11-26T04:12:39.012Z,6.60
2018-11-26T04:13:48.747Z,7.00
2018-11-26T04:14:58.695Z,7.72
2018-11-26T04:16:08.378Z,6.50
2018-11-26T04:17:17.944Z,6.35
2018-11-26T04:18:27.509Z,5.85
2018-11-26T04:19:37.315Z,7.35
2018-11-26T04:20:47.096Z,6.90
2018-11-26T04:21:56.819Z,6.53
2018-11-26T04:23:06.637Z,6.28
2018-11-26T04:24:16.418Z,7.17
2018-11-26T04:25:26.283Z,6.25
2018-11-26T04:26:35.989Z,6.58
2018-11-26T04:27:45.919Z,6.40
2018-11-26T04:28:55.786Z,6.35
2018-11-26T04:30:07.867Z,6.67
2018-11-26T04:31:17.503Z,6.37
2018-11-26T04:32:27.266Z,6.78
2018-11-26T04:33:37.083Z,7.12
2018-11-26T04:34:46.749Z,6.00
2018-11-26T04:35:56.513Z,6.97
2018-11-26T04:37:06.212Z,6.37
2018-11-26T04:38:15.989Z,6.28
2018-11-26T04:39:25.770Z,6.58
2018-11-26T04:40:35.372Z,7.00
2018-11-26T04:41:45.068Z,6.28
2018-11-26T04:42:55.110Z,6.50
2018-11-26T04:44:05.168Z,5.20
2018-11-26T04:45:14.801Z,6.65
2018-11-26T04:46:24.973Z,5.55
2018-11-26T04:47:34.818Z,5.85
2018-11-26T04:48:44.407Z,6.78
2018-11-26T04:49:54.238Z,6.50
2018-11-26T04:51:04.384Z,5.85
2018-11-26T04:52:14.301Z,5.65
2018-11-26T04:53:23.951Z,5.65
2018-11-26T04:54:33.814Z,5.85
2018-11-26T04:55:43.559Z,5.60
2018-11-26T04:56:53.208Z,4.95
2018-11-26T04:58:02.942Z,5.17
2018-11-26T04:59:12.768Z,5.65
2018-11-26T05:00:22.346Z,5.37
2018-11-26T05:01:32.301Z,5.30
2018-11-26T05:02:42.141Z,4.20
2018-11-26T05:03:51.752Z,5.70
2018-11-26T05:05:01.382Z,5.75
2018-11-26T05:06:11.079Z,4.60
2018-11-26T05:07:20.747Z,5.30
2018-11-26T05:08:30.879Z,6.12
2018-11-26T05:09:40.547Z,5.75
2018-11-26T05:10:51.211Z,5.47
2018-11-26T05:11:59.953Z,5.00
2018-11-26T05:13:09.984Z,4.47
2018-11-26T05:14:19.718Z,5.53
2018-11-26T05:15:29.444Z,6.78
2018-11-26T05:16:38.975Z,6.25
2018-11-26T05:17:49.003Z,6.05
2018-11-26T05:18:58.655Z,5.83
2018-11-26T05:20:10.307Z,5.40
2018-11-26T05:21:20.156Z,4.78
2018-11-26T05:22:29.627Z,5.50
2018-11-26T05:23:39.571Z,5.25
2018-11-26T05:24:49.318Z,6.25
2018-11-26T05:25:59.187Z,5.80
2018-11-26T05:27:08.886Z,5.90
2018-11-26T05:28:18.581Z,5.33
2018-11-26T05:29:28.321Z,4.60
2018-11-26T05:30:38.232Z,5.78
2018-11-26T05:31:48.184Z,5.78
2018-11-26T05:32:57.776Z,5.53
2018-11-26T05:34:07.501Z,5.12
2018-11-26T05:35:17.312Z,5.37
2018-11-26T05:36:27.313Z,5.10
2018-11-26T05:37:37.213Z,5.37
2018-11-26T05:38:47.172Z,3.98
2018-11-26T05:39:56.867Z,5.25
2018-11-26T05:41:06.859Z,3.98
2018-11-26T05:42:16.786Z,5.58
2018-11-26T05:43:26.764Z,4.15
2018-11-26T05:44:37.010Z,3.90
2018-11-26T05:45:46.854Z,5.30
2018-11-26T05:46:56.481Z,5.78
2018-11-26T05:48:06.346Z,4.17
2018-11-26T05:49:15.975Z,6.42
2018-11-26T05:50:25.627Z,6.80
2018-11-26T05:51:35.280Z,5.70
2018-11-26T05:52:45.052Z,7.85
2018-11-26T05:53:55.101Z,6.25
2018-11-26T05:55:04.686Z,6.05
2018-11-26T05:56:14.713Z,5.90
2018-11-26T05:57:24.460Z,5.70
2018-11-26T05:58:34.404Z,4.22
2018-11-26T05:59:44.233Z,4.85
2018-11-26T06:00:53.875Z,5.10
2018-11-26T06:02:03.551Z,4.40
2018-11-26T06:03:13.154Z,5.17
2018-11-26T06:04:23.138Z,6.10
2018-11-26T06:05:32.653Z,5.62
2018-11-26T06:06:42.907Z,4.62
2018-11-26T06:07:52.303Z,5.10
2018-11-26T06:09:02.334Z,5.17
2018-11-26T06:10:12.167Z,4.83
2018-11-26T06:11:22.013Z,4.90
2018-11-26T06:12:31.718Z,5.08
2018-11-26T06:13:41.582Z,4.90
2018-11-26T06:14:57.272Z,5.47
2018-11-26T06:16:07.222Z,4.67
2018-11-26T06:17:16.714Z,4.95
2018-11-26T06:18:26.602Z,5.58
2018-11-26T06:19:36.356Z,5.15
2018-11-26T06:20:46.157Z,4.97
2018-11-26T06:21:55.794Z,5.20
2018-11-26T06:23:06.262Z,4.80
2018-11-26T06:24:15.689Z,5.08
2018-11-26T06:25:25.561Z,5.00
2018-11-26T06:26:35.191Z,5.08
2018-11-26T06:27:45.069Z,5.28
2018-11-26T06:28:54.986Z,4.53
2018-11-26T06:30:08.083Z,4.40
2018-11-26T06:31:17.920Z,4.58
2018-11-26T06:32:28.083Z,5.42
2018-11-26T06:33:37.884Z,3.83
2018-11-26T06:34:47.497Z,4.60
2018-11-26T06:35:57.423Z,5.55
2018-11-26T06:37:07.197Z,3.75
2018-11-26T06:38:17.052Z,5.08
2018-11-26T06:39:26.673Z,3.80
2018-11-26T06:40:36.728Z,4.30
2018-11-26T06:41:46.552Z,5.40
2018-11-26T06:42:56.199Z,4.75
2018-11-26T06:44:07.124Z,4.22
2018-11-26T06:45:18.007Z,4.42
2018-11-26T06:46:27.839Z,5.10
2018-11-26T06:47:37.816Z,4.30
2018-11-26T06:48:47.479Z,4.67
2018-11-26T06:49:57.967Z,5.00
2018-11-26T06:51:07.524Z,4.58
2018-11-26T06:52:17.387Z,4.60
2018-11-26T06:53:27.333Z,3.72
2018-11-26T06:54:36.839Z,4.20
2018-11-26T06:55:46.535Z,6.15
2018-11-26T06:56:56.573Z,5.53
2018-11-26T06:58:06.370Z,4.47
2018-11-26T06:59:16.023Z,5.15
2018-11-26T07:00:25.669Z,5.15
2018-11-26T07:01:35.683Z,4.45
2018-11-26T07:02:45.543Z,4.12
2018-11-26T07:03:55.542Z,4.85
2018-11-26T07:05:08.604Z,4.97
2018-11-26T07:06:18.468Z,5.30
2018-11-26T07:07:28.497Z,4.85
2018-11-26T07:08:38.329Z,5.53
2018-11-26T07:09:47.864Z,5.72
2018-11-26T07:10:58.072Z,5.75
2018-11-26T07:12:07.956Z,4.55
2018-11-26T07:13:17.862Z,4.67
2018-11-26T07:14:27.521Z,5.25
2018-11-26T07:15:37.404Z,4.80
2018-11-26T07:16:47.510Z,5.92
2018-11-26T07:17:57.192Z,5.17
2018-11-26T07:19:06.787Z,5.70
2018-11-26T07:20:17.574Z,5.00
2018-11-26T07:21:27.348Z,5.47
2018-11-26T07:22:38.068Z,6.20
2018-11-26T07:23:47.985Z,6.10
2018-11-26T07:24:57.702Z,5.50
2018-11-26T07:26:07.435Z,6.10
2018-11-26T07:27:17.144Z,6.20
2018-11-26T07:28:26.970Z,7.08
2018-11-26T07:29:36.748Z,5.90
2018-11-26T07:30:46.298Z,6.10
2018-11-26T07:31:56.006Z,6.03
2018-11-26T07:33:06.074Z,7.05
2018-11-26T07:34:15.839Z,7.10
2018-11-26T07:35:25.482Z,5.90
2018-11-26T07:36:35.304Z,7.03
2018-11-26T07:37:45.106Z,6.47
2018-11-26T07:38:54.810Z,6.55
2018-11-26T07:40:07.128Z,6.80
2018-11-26T07:41:16.900Z,6.92
2018-11-26T07:42:26.507Z,5.95
2018-11-26T07:43:36.222Z,6.47
2018-11-26T07:44:46.067Z,6.80
2018-11-26T07:45:55.976Z,7.47
2018-11-26T07:47:05.857Z,7.17
2018-11-26T07:48:16.333Z,7.15
2018-11-26T07:49:25.992Z,7.08
2018-11-26T07:50:36.545Z,7.00
2018-11-26T07:51:46.433Z,7.40
2018-11-26T07:52:56.016Z,7.40
2018-11-26T07:54:06.398Z,6.87
2018-11-26T07:55:18.259Z,6.10
2018-11-26T07:56:28.057Z,6.75
2018-11-26T07:57:37.968Z,6.62
2018-11-26T07:58:47.916Z,6.58
2018-11-26T07:59:57.470Z,6.45
2018-11-26T08:01:07.270Z,6.80
2018-11-26T08:02:17.014Z,6.47
2018-11-26T08:03:32.883Z,6.70
2018-11-26T08:04:42.596Z,6.50
2018-11-26T08:05:52.694Z,6.78
2018-11-26T08:07:02.286Z,5.42
2018-11-26T08:08:12.055Z,5.70
2018-11-26T08:09:21.691Z,5.72
2018-11-26T08:10:31.252Z,6.12
2018-11-26T08:11:41.233Z,4.87
2018-11-26T08:12:52.026Z,5.90
2018-11-26T08:14:01.717Z,5.60
2018-11-26T08:15:13.980Z,5.62
2018-11-26T08:16:23.718Z,6.55
2018-11-26T08:17:33.543Z,6.17
2018-11-26T08:18:43.367Z,6.50
2018-11-26T08:19:53.193Z,5.60
2018-11-26T08:21:02.852Z,6.60
2018-11-26T08:22:12.592Z,6.00
2018-11-26T08:23:22.223Z,5.12
2018-11-26T08:24:31.751Z,5.17
2018-11-26T08:25:41.880Z,5.55
2018-11-26T08:26:51.366Z,5.72
2018-11-26T08:28:01.354Z,5.15
2018-11-26T08:29:11.135Z,6.37
2018-11-26T08:30:25.496Z,6.00
2018-11-26T08:31:35.278Z,5.90
2018-11-26T08:32:45.943Z,5.25
2018-11-26T08:33:55.332Z,3.85
2018-11-26T08:35:05.418Z,4.20
2018-11-26T08:36:15.035Z,5.12
2018-11-26T08:37:29.800Z,4.45
2018-11-26T08:38:44.988Z,4.40
2018-11-26T08:40:00.222Z,4.20
2018-11-26T08:41:16.110Z,5.00
2018-11-26T08:42:31.827Z,4.35
2018-11-26T08:43:45.694Z,3.37
2018-11-26T08:45:00.851Z,4.70
2018-11-26T08:46:10.710Z,4.17
2018-11-26T08:47:27.675Z,5.08
2018-11-26T08:48:43.373Z,4.58
2018-11-26T08:49:53.127Z,4.92
2018-11-26T08:51:03.214Z,3.75
2018-11-26T08:52:13.080Z,4.70
2018-11-26T08:53:22.949Z,5.12
2018-11-26T08:54:32.901Z,4.90
2018-11-26T08:55:42.477Z,6.10
2018-11-26T08:56:52.254Z,4.58
2018-11-26T08:58:02.350Z,5.15
2018-11-26T08:59:12.070Z,5.55
2018-11-26T09:00:21.886Z,4.58
2018-11-26T09:01:39.112Z,5.75
2018-11-26T09:02:53.147Z,4.90
2018-11-26T09:04:09.027Z,4.58
2018-11-26T09:05:24.140Z,4.80
2018-11-26T09:06:33.400Z,5.37
2018-11-26T09:07:43.083Z,5.45
2018-11-26T09:08:52.815Z,6.10
2018-11-26T09:10:02.858Z,5.95
2018-11-26T09:11:12.633Z,5.78
2018-11-26T09:12:22.190Z,6.03
2018-11-26T09:13:31.929Z,5.28
2018-11-26T09:14:41.571Z,5.55
2018-11-26T09:15:51.236Z,5.25
2018-11-26T09:17:12.264Z,5.15
2018-11-26T09:18:22.304Z,5.62
2018-11-26T09:19:32.087Z,5.28
2018-11-26T09:20:41.973Z,5.58
2018-11-26T09:21:51.849Z,5.83
2018-11-26T09:23:01.433Z,5.45
2018-11-26T09:24:11.183Z,5.25
2018-11-26T09:25:21.101Z,5.42
2018-11-26T09:26:31.007Z,5.72
2018-11-26T09:27:40.636Z,5.22
2018-11-26T09:28:50.176Z,5.53
2018-11-26T09:30:00.264Z,6.22
2018-11-26T09:31:09.924Z,4.95
2018-11-26T09:32:19.731Z,6.05
2018-11-26T09:33:29.438Z,5.70
2018-11-26T09:34:39.252Z,5.95
2018-11-26T09:35:49.256Z,5.20
2018-11-26T09:36:59.090Z,6.15
2018-11-26T09:38:08.755Z,4.97
2018-11-26T09:39:18.378Z,5.70
2018-11-26T09:40:28.234Z,6.00
2018-11-26T09:41:38.327Z,5.85
2018-11-26T09:42:48.177Z,5.20
2018-11-26T09:43:58.040Z,5.83
2018-11-26T09:45:09.886Z,5.60
2018-11-26T09:46:19.642Z,4.65
2018-11-26T09:47:29.325Z,5.20
2018-11-26T09:48:39.019Z,3.85
2018-11-26T09:49:48.956Z,5.53
2018-11-26T09:50:58.546Z,4.28
2018-11-26T09:52:08.223Z,4.90
2018-11-26T09:53:18.107Z,3.83
2018-11-26T09:54:27.954Z,4.30
2018-11-26T09:55:37.697Z,4.90
2018-11-26T09:56:47.261Z,4.62
2018-11-26T09:57:57.369Z,4.65
2018-11-26T09:59:07.052Z,4.97
2018-11-26T10:00:18.047Z,4.37
2018-11-26T10:01:27.616Z,4.70
2018-11-26T10:02:37.467Z,4.53
2018-11-26T10:03:47.153Z,3.80
2018-11-26T10:04:56.978Z,4.28
2018-11-26T10:06:06.461Z,4.90
2018-11-26T10:07:16.282Z,4.17
2018-11-26T10:08:25.942Z,4.03
2018-11-26T10:09:35.647Z,4.05
2018-11-26T10:10:45.688Z,4.65
2018-11-26T10:11:55.366Z,4.33
2018-11-26T10:13:05.102Z,3.87
2018-11-26T10:14:14.719Z,4.97
2018-11-26T10:15:25.340Z,4.17
2018-11-26T10:16:35.090Z,3.40
2018-11-26T10:17:44.740Z,4.08
2018-11-26T10:18:54.657Z,3.95
2018-11-26T10:20:04.377Z,3.75
2018-11-26T10:21:13.946Z,3.85
2018-11-26T10:22:23.524Z,4.05
2018-11-26T10:23:33.432Z,3.37
2018-11-26T10:24:43.078Z,3.60
2018-11-26T10:25:52.701Z,3.98
2018-11-26T10:27:02.630Z,3.92
2018-11-26T10:28:12.300Z,3.47
2018-11-26T10:29:21.857Z,3.67
2018-11-26T10:30:31.737Z,3.58
2018-11-26T10:31:41.816Z,3.80
2018-11-26T10:32:52.529Z,3.75
2018-11-26T10:34:02.269Z,3.40
2018-11-26T10:35:13.969Z,3.20
2018-11-26T10:36:23.605Z,4.30
2018-11-26T10:37:33.460Z,3.35
2018-11-26T10:38:43.134Z,4.05
2018-11-26T10:39:53.202Z,3.72
2018-11-26T10:41:02.988Z,3.05
2018-11-26T10:42:12.734Z,3.50
2018-11-26T10:43:22.422Z,3.27
2018-11-26T10:44:32.285Z,3.65
2018-11-26T10:45:42.179Z,3.25
2018-11-26T10:46:52.139Z,3.95
2018-11-26T10:48:01.842Z,3.15
2018-11-26T10:49:11.823Z,3.35
2018-11-26T10:50:24.671Z,3.62
2018-11-26T10:51:34.821Z,3.10
2018-11-26T10:52:45.818Z,3.45
2018-11-26T10:53:55.628Z,3.40
2018-11-26T10:55:07.174Z,3.08
2018-11-26T10:56:17.478Z,2.98
2018-11-26T10:57:27.401Z,2.58
2018-11-26T10:58:37.355Z,1.75
2018-11-26T10:59:47.279Z,2.80
2018-11-26T11:00:57.922Z,1.92
2018-11-26T11:02:13.130Z,2.33
2018-11-26T11:03:23.178Z,2.40
2018-11-26T11:04:32.806Z,2.10
2018-11-26T11:05:42.482Z,1.95
2018-11-26T11:06:55.858Z,2.40
2018-11-26T11:08:02.482Z,2.20
2018-11-26T11:09:12.205Z,2.55
2018-11-26T11:10:28.297Z,1.65
2018-11-26T11:11:37.970Z,2.85
2018-11-26T11:12:47.798Z,1.60
2018-11-26T11:13:57.411Z,2.60
2018-11-26T11:15:09.248Z,2.77
2018-11-26T11:16:18.847Z,2.33
2018-11-26T11:17:28.900Z,2.00
2018-11-26T11:18:38.567Z,2.00
2018-11-26T11:19:48.447Z,2.60
2018-11-26T11:20:58.312Z,2.27
2018-11-26T11:22:07.986Z,2.12
2018-11-26T11:23:17.872Z,2.08
2018-11-26T11:24:27.435Z,1.75
2018-11-26T11:25:37.460Z,1.65
2018-11-26T11:26:47.178Z,2.10
2018-11-26T11:27:56.909Z,1.70
2018-11-26T11:29:06.851Z,2.05
2018-11-26T11:30:19.535Z,2.30
2018-11-26T11:31:29.237Z,2.05
2018-11-26T11:32:38.811Z,3.08
2018-11-26T11:33:48.796Z,2.15
2018-11-26T11:34:58.980Z,2.55
2018-11-26T11:36:09.041Z,2.47
2018-11-26T11:37:19.002Z,2.00
2018-11-26T11:38:28.628Z,2.20
2018-11-26T11:39:38.502Z,1.80
2018-11-26T11:40:48.446Z,2.10
2018-11-26T11:41:58.201Z,1.90
2018-11-26T11:43:07.977Z,1.80
2018-11-26T11:44:22.030Z,2.08
2018-11-26T11:45:33.161Z,2.02
2018-11-26T11:46:43.164Z,2.20
2018-11-26T11:47:52.951Z,2.80
2018-11-26T11:49:08.943Z,2.60
2018-11-26T11:50:19.704Z,2.00
2018-11-26T11:51:29.768Z,2.17
2018-11-26T11:52:39.901Z,1.82
2018-11-26T11:53:49.595Z,2.25
2018-11-26T11:54:59.571Z,1.80
2018-11-26T11:56:09.718Z,1.50
2018-11-26T11:57:19.716Z,2.15
2018-11-26T11:58:29.575Z,1.90
2018-11-26T11:59:39.267Z,2.40
2018-11-26T12:00:49.823Z,2.25
2018-11-26T12:01:59.550Z,1.27
2018-11-26T12:03:11.465Z,2.40
2018-11-26T12:04:21.247Z,2.10
2018-11-26T12:05:31.281Z,1.95
2018-11-26T12:06:41.118Z,2.25
2018-11-26T12:07:50.743Z,1.60
2018-11-26T12:09:00.639Z,2.17
2018-11-26T12:10:11.478Z,2.00
2018-11-26T12:11:21.296Z,2.08
2018-11-26T12:12:31.046Z,2.20
2018-11-26T12:13:40.981Z,2.30
2018-11-26T12:14:50.719Z,1.87
2018-11-26T12:16:00.498Z,1.60
2018-11-26T12:17:10.174Z,1.62
2018-11-26T12:18:19.877Z,1.77
2018-11-26T12:19:29.390Z,1.65
2018-11-26T12:20:39.236Z,2.20
2018-11-26T12:21:49.212Z,1.77
2018-11-26T12:22:58.872Z,2.10
2018-11-26T12:24:08.527Z,1.70
2018-11-26T12:25:19.519Z,2.35
2018-11-26T12:26:28.943Z,2.30
2018-11-26T12:27:38.785Z,1.50
2018-11-26T12:28:48.579Z,1.90
2018-11-26T12:29:58.681Z,2.27
2018-11-26T12:31:08.441Z,2.00
2018-11-26T12:32:18.095Z,2.00
2018-11-26T12:33:27.997Z,2.08
2018-11-26T12:34:37.625Z,1.55
2018-11-26T12:35:47.701Z,1.55
2018-11-26T12:36:57.923Z,1.80
2018-11-26T12:38:06.930Z,1.85
2018-11-26T12:39:16.758Z,2.20
2018-11-26T12:40:27.000Z,1.92
2018-11-26T12:41:36.731Z,2.52
2018-11-26T12:42:46.548Z,2.08
2018-11-26T12:43:56.460Z,1.67
2018-11-26T12:45:19.995Z,1.80
2018-11-26T12:46:29.465Z,2.30
2018-11-26T12:47:38.975Z,1.98
2018-11-26T12:48:49.019Z,2.08
2018-11-26T12:49:58.756Z,1.85
2018-11-26T12:51:08.545Z,2.10
2018-11-26T12:52:18.291Z,2.42
2018-11-26T12:53:28.179Z,1.60
2018-11-26T12:54:37.867Z,2.08
2018-11-26T12:55:47.577Z,1.87
2018-11-26T12:56:57.229Z,1.55
2018-11-26T12:58:07.864Z,1.55
2018-11-26T12:59:17.535Z,2.02
2018-11-26T13:00:28.456Z,1.92
2018-11-26T13:01:38.319Z,1.90
2018-11-26T13:02:49.291Z,1.40
2018-11-26T13:03:58.982Z,1.98
2018-11-26T13:05:11.911Z,1.62
2018-11-26T13:06:21.663Z,1.70
2018-11-26T13:07:31.562Z,2.10
2018-11-26T13:08:41.248Z,1.92
2018-11-26T13:09:51.105Z,1.82
2018-11-26T13:11:00.953Z,1.80
2018-11-26T13:12:10.816Z,1.87
2018-11-26T13:13:20.442Z,2.00
2018-11-26T13:14:30.093Z,1.90
2018-11-26T13:15:40.065Z,1.32
2018-11-26T13:16:49.899Z,1.80
2018-11-26T13:17:59.533Z,2.33
2018-11-26T13:19:09.332Z,1.80
2018-11-26T13:20:20.244Z,1.77
2018-11-26T13:21:29.736Z,1.80
2018-11-26T13:22:39.500Z,1.10
2018-11-26T13:23:49.305Z,2.12
2018-11-26T13:24:58.967Z,1.40
2018-11-26T13:26:08.737Z,1.82
2018-11-26T13:27:18.449Z,2.10
2018-11-26T13:28:28.505Z,1.70
2018-11-26T13:29:38.074Z,1.90
2018-11-26T13:30:49.688Z,1.40
2018-11-26T13:31:59.284Z,2.47
2018-11-26T13:33:12.364Z,1.60
2018-11-26T13:34:22.256Z,2.72
2018-11-26T13:35:31.920Z,1.75
2018-11-26T13:36:41.697Z,1.50
2018-11-26T13:37:51.381Z,2.60
2018-11-26T13:39:01.078Z,2.60
2018-11-26T13:40:13.125Z,1.95
2018-11-26T13:41:22.870Z,1.87
2018-11-26T13:42:32.679Z,2.10
2018-11-26T13:43:42.436Z,1.75
2018-11-26T13:44:52.339Z,1.77
2018-11-26T13:46:02.217Z,2.10
2018-11-26T13:47:14.957Z,2.20
2018-11-26T13:48:24.703Z,2.10
2018-11-26T13:49:34.784Z,1.70
2018-11-26T13:50:50.136Z,1.80
2018-11-26T13:51:59.739Z,2.17
2018-11-26T13:53:09.379Z,2.25
2018-11-26T13:54:19.678Z,2.10
2018-11-26T13:55:29.447Z,1.62
2018-11-26T13:56:39.406Z,1.65
2018-11-26T13:57:48.924Z,1.92
2018-11-26T13:58:58.592Z,2.10
2018-11-26T14:00:10.143Z,1.98
2018-11-26T14:01:19.962Z,1.80
2018-11-26T14:02:29.562Z,1.47
2018-11-26T14:03:39.157Z,2.27
2018-11-26T14:04:48.805Z,2.00
2018-11-26T14:05:58.672Z,2.20
2018-11-26T14:07:08.267Z,2.40
2018-11-26T14:08:18.170Z,2.15
2018-11-26T14:09:28.162Z,2.20
2018-11-26T14:10:37.811Z,1.98
2018-11-26T14:11:47.569Z,1.70
2018-11-26T14:13:16.744Z,2.22
2018-11-26T14:14:26.564Z,1.95
2018-11-26T14:15:36.326Z,2.22
2018-11-26T14:16:46.654Z,1.72
2018-11-26T14:17:56.392Z,2.47
2018-11-26T14:19:07.013Z,1.70
2018-11-26T14:20:17.221Z,2.47
2018-11-26T14:21:26.947Z,1.77
2018-11-26T14:22:36.413Z,1.60
2018-11-26T14:23:46.446Z,2.22
2018-11-26T14:24:56.109Z,2.15
2018-11-26T14:26:05.883Z,2.10
2018-11-26T14:27:15.620Z,1.80
2018-11-26T14:28:25.405Z,1.82
2018-11-26T14:29:41.484Z,2.60
2018-11-26T14:30:50.992Z,2.15
2018-11-26T14:32:01.656Z,2.42
2018-11-26T14:33:11.577Z,2.12
2018-11-26T14:34:21.564Z,1.82
2018-11-26T14:35:31.126Z,2.40
2018-11-26T14:36:41.212Z,2.42
2018-11-26T14:37:52.182Z,2.70
2018-11-26T14:39:02.116Z,2.17
2018-11-26T14:40:15.712Z,2.30
2018-11-26T14:41:25.811Z,2.33
2018-11-26T14:42:35.708Z,2.08
2018-11-26T14:43:45.458Z,2.70
2018-11-26T14:44:55.296Z,2.20
2018-11-26T14:46:06.725Z,2.33
2018-11-26T14:47:16.279Z,2.55
2018-11-26T14:48:26.084Z,2.45
2018-11-26T14:49:35.664Z,2.20
2018-11-26T14:50:45.407Z,1.92
2018-11-26T14:51:55.192Z,2.37
2018-11-26T14:53:06.528Z,2.70
2018-11-26T14:54:16.404Z,2.20
2018-11-26T14:55:29.111Z,2.20
2018-11-26T14:56:39.089Z,2.22
2018-11-26T14:57:48.904Z,2.40
2018-11-26T14:58:58.624Z,2.55
2018-11-26T15:00:13.324Z,2.30
2018-11-26T15:01:22.892Z,2.37
2018-11-26T15:02:32.715Z,2.87
2018-11-26T15:03:42.361Z,2.47
2018-11-26T15:04:52.265Z,2.50
2018-11-26T15:06:01.709Z,2.20
2018-11-26T15:07:11.596Z,2.55
2018-11-26T15:08:21.275Z,2.37
2018-11-26T15:09:30.915Z,3.12
2018-11-26T15:10:40.631Z,2.60
2018-11-26T15:11:50.474Z,2.30
2018-11-26T15:13:00.170Z,2.77
2018-11-26T15:14:10.034Z,2.37
2018-11-26T15:15:25.653Z,2.30
2018-11-26T15:16:35.244Z,2.20
2018-11-26T15:17:45.451Z,3.08
2018-11-26T15:18:54.983Z,2.17
2018-11-26T15:20:09.674Z,2.22
2018-11-26T15:21:19.807Z,2.08
2018-11-26T15:22:29.769Z,2.35
2018-11-26T15:23:39.255Z,2.35
2018-11-26T15:24:49.218Z,2.42
2018-11-26T15:25:59.468Z,1.90
2018-11-26T15:27:09.090Z,1.95
2018-11-26T15:28:19.317Z,2.47
2018-11-26T15:29:28.974Z,2.70
2018-11-26T15:30:38.840Z,2.17
2018-11-26T15:31:50.307Z,1.87
2018-11-26T15:32:58.353Z,2.50
2018-11-26T15:34:08.343Z,2.27